sensor_id;sensor_type;location;lat;lon;timestamp;pressure;altitude;pressure_sealevel;temperature;humidity
7026;BME280;3554;42.132;24.786;2023-03-16T00:01:06;98219.94;;;10.34;100.00
7026;BME280;3554;42.132;24.786;2023-03-16T00:03:35;98235.50;;;10.51;100.00
7026;BME280;3554;42.132;24.786;2023-03-16T00:06:02;98246.22;;;10.47;100.00
7026;BME280;3554;42.132;24.786;2023-03-16T00:08:29;98247.81;;;10.49;100.00
7026;BME280;3554;42.132;24.786;2023-03-16T00:10:55;98244.94;;;10.54;100.00
7026;BME280;3554;42.132;24.786;2023-03-16T00:13:23;98246.06;;;10.50;100.00
7026;BME280;3554;42.132;24.786;2023-03-16T00:15:51;98244.09;;;10.53;100.00
7026;BME280;3554;42.132;24.786;2023-03-16T00:18:18;98247.38;;;10.57;100.00
7026;BME280;3554;42.132;24.786;2023-03-16T00:20:50;98248.41;;;10.54;100.00
7026;BME280;3554;42.132;24.786;2023-03-16T00:23:18;98248.50;;;10.53;100.00
7026;BME280;3554;42.132;24.786;2023-03-16T00:25:52;98246.88;;;10.50;100.00
7026;BME280;3554;42.132;24.786;2023-03-16T00:28:19;98238.28;;;10.48;100.00
7026;BME280;3554;42.132;24.786;2023-03-16T00:30:47;98246.13;;;10.48;100.00
7026;BME280;3554;42.132;24.786;2023-03-16T00:33:13;98247.41;;;10.41;100.00
7026;BME280;3554;42.132;24.786;2023-03-16T00:35:40;98232.69;;;10.54;100.00
7026;BME280;3554;42.132;24.786;2023-03-16T00:38:16;98242.69;;;10.48;100.00
7026;BME280;3554;42.132;24.786;2023-03-16T00:40:43;98248.84;;;10.47;100.00
7026;BME280;3554;42.132;24.786;2023-03-16T00:43:09;98249.59;;;10.49;100.00
7026;BME280;3554;42.132;24.786;2023-03-16T00:45:36;98233.59;;;10.39;100.00
7026;BME280;3554;42.132;24.786;2023-03-16T00:48:03;98247.91;;;10.48;100.00
7026;BME280;3554;42.132;24.786;2023-03-16T00:50:30;98250.44;;;10.49;100.00
7026;BME280;3554;42.132;24.786;2023-03-16T00:52:57;98250.97;;;10.40;100.00
7026;BME280;3554;42.132;24.786;2023-03-16T00:55:25;98253.97;;;10.48;100.00
7026;BME280;3554;42.132;24.786;2023-03-16T00:57:52;98261.00;;;10.48;100.00
7026;BME280;3554;42.132;24.786;2023-03-16T01:00:20;98257.72;;;10.44;100.00
7026;BME280;3554;42.132;24.786;2023-03-16T01:02:49;98263.91;;;10.57;100.00
7026;BME280;3554;42.132;24.786;2023-03-16T01:05:16;98265.03;;;10.53;100.00
7026;BME280;3554;42.132;24.786;2023-03-16T01:07:43;98263.72;;;10.46;100.00
7026;BME280;3554;42.132;24.786;2023-03-16T01:10:11;98260.06;;;10.49;100.00
7026;BME280;3554;42.132;24.786;2023-03-16T01:12:39;98267.00;;;10.50;100.00
7026;BME280;3554;42.132;24.786;2023-03-16T01:15:08;98263.19;;;10.40;100.00
7026;BME280;3554;42.132;24.786;2023-03-16T01:17:34;98267.16;;;10.47;100.00
7026;BME280;3554;42.132;24.786;2023-03-16T01:20:02;98265.94;;;10.52;100.00
7026;BME280;3554;42.132;24.786;2023-03-16T01:22:32;98267.91;;;10.49;100.00
7026;BME280;3554;42.132;24.786;2023-03-16T01:24:59;98270.44;;;10.50;100.00
7026;BME280;3554;42.132;24.786;2023-03-16T01:27:25;98263.63;;;10.48;100.00
7026;BME280;3554;42.132;24.786;2023-03-16T01:29:54;98269.19;;;10.42;100.00
7026;BME280;3554;42.132;24.786;2023-03-16T01:32:20;98273.41;;;10.44;100.00
7026;BME280;3554;42.132;24.786;2023-03-16T01:34:47;98268.22;;;10.29;100.00
7026;BME280;3554;42.132;24.786;2023-03-16T01:37:14;98267.63;;;10.24;100.00
7026;BME280;3554;42.132;24.786;2023-03-16T01:39:40;98282.63;;;10.05;100.00
7026;BME280;3554;42.132;24.786;2023-03-16T01:42:08;98267.28;;;9.99;100.00
7026;BME280;3554;42.132;24.786;2023-03-16T01:44:54;98236.53;;;9.72;100.00
7026;BME280;3554;42.132;24.786;2023-03-16T01:47:21;98206.63;;;9.47;100.00
7026;BME280;3554;42.132;24.786;2023-03-16T01:49:50;98270.75;;;9.84;100.00
7026;BME280;3554;42.132;24.786;2023-03-16T01:52:22;98267.78;;;9.74;100.00
7026;BME280;3554;42.132;24.786;2023-03-16T01:54:52;98265.19;;;9.58;100.00
7026;BME280;3554;42.132;24.786;2023-03-16T01:57:23;98256.97;;;9.33;100.00
7026;BME280;3554;42.132;24.786;2023-03-16T01:59:55;98284.63;;;9.37;100.00
7026;BME280;3554;42.132;24.786;2023-03-16T02:02:25;98285.88;;;9.30;100.00
7026;BME280;3554;42.132;24.786;2023-03-16T02:05:01;98285.34;;;9.24;100.00
7026;BME280;3554;42.132;24.786;2023-03-16T02:07:33;98294.94;;;9.23;100.00
7026;BME280;3554;42.132;24.786;2023-03-16T02:10:02;98231.00;;;8.82;100.00
7026;BME280;3554;42.132;24.786;2023-03-16T02:12:30;98302.31;;;9.15;100.00
7026;BME280;3554;42.132;24.786;2023-03-16T02:14:58;98304.13;;;9.15;100.00
7026;BME280;3554;42.132;24.786;2023-03-16T02:17:26;98309.38;;;9.13;100.00
7026;BME280;3554;42.132;24.786;2023-03-16T02:20:05;98318.16;;;9.12;100.00
7026;BME280;3554;42.132;24.786;2023-03-16T02:22:38;98314.78;;;9.10;100.00
7026;BME280;3554;42.132;24.786;2023-03-16T02:25:07;98315.63;;;9.11;100.00
7026;BME280;3554;42.132;24.786;2023-03-16T02:27:40;98317.31;;;9.12;100.00
7026;BME280;3554;42.132;24.786;2023-03-16T02:30:12;98315.47;;;9.14;100.00
7026;BME280;3554;42.132;24.786;2023-03-16T02:32:41;98330.13;;;9.16;100.00
7026;BME280;3554;42.132;24.786;2023-03-16T02:35:09;98323.06;;;9.18;100.00
7026;BME280;3554;42.132;24.786;2023-03-16T02:37:37;98332.75;;;9.16;100.00
7026;BME280;3554;42.132;24.786;2023-03-16T02:40:16;98328.59;;;9.12;100.00
7026;BME280;3554;42.132;24.786;2023-03-16T02:42:46;98329.28;;;9.16;100.00
7026;BME280;3554;42.132;24.786;2023-03-16T02:45:14;98328.56;;;9.29;100.00
7026;BME280;3554;42.132;24.786;2023-03-16T02:47:42;98318.22;;;9.11;100.00
7026;BME280;3554;42.132;24.786;2023-03-16T02:50:10;98315.16;;;9.03;100.00
7026;BME280;3554;42.132;24.786;2023-03-16T02:52:38;98307.78;;;8.94;100.00
7026;BME280;3554;42.132;24.786;2023-03-16T02:55:07;98345.41;;;9.07;100.00
7026;BME280;3554;42.132;24.786;2023-03-16T02:57:34;98344.03;;;9.00;100.00
7026;BME280;3554;42.132;24.786;2023-03-16T03:00:01;98349.25;;;9.00;100.00
7026;BME280;3554;42.132;24.786;2023-03-16T03:02:32;98353.41;;;9.04;100.00
7026;BME280;3554;42.132;24.786;2023-03-16T03:04:59;98365.59;;;9.03;100.00
7026;BME280;3554;42.132;24.786;2023-03-16T03:07:26;98369.19;;;9.01;100.00
7026;BME280;3554;42.132;24.786;2023-03-16T03:09:56;98364.69;;;8.87;100.00
7026;BME280;3554;42.132;24.786;2023-03-16T03:12:23;98367.97;;;8.74;100.00
7026;BME280;3554;42.132;24.786;2023-03-16T03:14:49;98367.22;;;8.72;100.00
7026;BME280;3554;42.132;24.786;2023-03-16T03:17:16;98363.75;;;8.71;100.00
7026;BME280;3554;42.132;24.786;2023-03-16T03:19:44;98374.53;;;8.63;100.00
7026;BME280;3554;42.132;24.786;2023-03-16T03:22:11;98365.94;;;8.61;100.00
7026;BME280;3554;42.132;24.786;2023-03-16T03:24:42;98373.22;;;8.55;100.00
7026;BME280;3554;42.132;24.786;2023-03-16T03:27:09;98379.16;;;8.58;100.00
7026;BME280;3554;42.132;24.786;2023-03-16T03:29:36;98391.72;;;8.50;100.00
7026;BME280;3554;42.132;24.786;2023-03-16T03:32:03;98392.53;;;8.51;100.00
7026;BME280;3554;42.132;24.786;2023-03-16T03:34:30;98389.69;;;8.38;100.00
7026;BME280;3554;42.132;24.786;2023-03-16T03:36:59;98398.00;;;8.46;100.00
7026;BME280;3554;42.132;24.786;2023-03-16T03:39:26;98409.41;;;8.44;100.00
7026;BME280;3554;42.132;24.786;2023-03-16T03:41:53;98405.31;;;8.38;100.00
7026;BME280;3554;42.132;24.786;2023-03-16T03:44:20;98405.47;;;8.35;100.00
7026;BME280;3554;42.132;24.786;2023-03-16T03:46:46;98416.44;;;8.42;100.00
7026;BME280;3554;42.132;24.786;2023-03-16T03:49:14;98407.19;;;8.36;100.00
7026;BME280;3554;42.132;24.786;2023-03-16T03:51:41;98414.69;;;8.42;100.00
7026;BME280;3554;42.132;24.786;2023-03-16T03:54:09;98420.97;;;8.38;100.00
7026;BME280;3554;42.132;24.786;2023-03-16T03:56:36;98411.31;;;8.40;100.00
7026;BME280;3554;42.132;24.786;2023-03-16T03:59:03;98363.81;;;8.15;100.00
7026;BME280;3554;42.132;24.786;2023-03-16T04:01:30;98409.28;;;8.28;100.00
7026;BME280;3554;42.132;24.786;2023-03-16T04:03:56;98415.44;;;8.27;100.00
7026;BME280;3554;42.132;24.786;2023-03-16T04:06:23;98430.38;;;8.22;100.00
7026;BME280;3554;42.132;24.786;2023-03-16T04:08:50;98426.38;;;8.15;100.00
7026;BME280;3554;42.132;24.786;2023-03-16T04:11:20;98424.41;;;8.20;100.00
7026;BME280;3554;42.132;24.786;2023-03-16T04:13:49;98433.28;;;8.16;100.00
7026;BME280;3554;42.132;24.786;2023-03-16T04:16:16;98440.47;;;8.11;100.00
7026;BME280;3554;42.132;24.786;2023-03-16T04:18:43;98444.84;;;8.11;100.00
7026;BME280;3554;42.132;24.786;2023-03-16T04:21:13;98430.31;;;8.05;100.00
7026;BME280;3554;42.132;24.786;2023-03-16T04:23:41;98449.75;;;7.98;100.00
7026;BME280;3554;42.132;24.786;2023-03-16T04:26:08;98450.88;;;7.93;100.00
7026;BME280;3554;42.132;24.786;2023-03-16T04:28:36;98449.38;;;7.87;100.00
7026;BME280;3554;42.132;24.786;2023-03-16T04:31:04;98478.09;;;7.86;100.00
7026;BME280;3554;42.132;24.786;2023-03-16T04:33:32;98466.72;;;7.88;100.00
7026;BME280;3554;42.132;24.786;2023-03-16T04:36:00;98460.13;;;7.80;100.00
7026;BME280;3554;42.132;24.786;2023-03-16T04:38:28;98464.38;;;7.82;100.00
7026;BME280;3554;42.132;24.786;2023-03-16T04:40:55;98466.19;;;7.80;100.00
7026;BME280;3554;42.132;24.786;2023-03-16T04:43:22;98466.34;;;7.77;100.00
7026;BME280;3554;42.132;24.786;2023-03-16T04:45:50;98452.78;;;7.69;100.00
7026;BME280;3554;42.132;24.786;2023-03-16T04:48:17;98461.66;;;7.65;100.00
7026;BME280;3554;42.132;24.786;2023-03-16T04:50:44;98468.69;;;7.63;100.00
7026;BME280;3554;42.132;24.786;2023-03-16T04:53:10;98480.47;;;7.72;100.00
7026;BME280;3554;42.132;24.786;2023-03-16T04:55:37;98492.13;;;7.63;100.00
7026;BME280;3554;42.132;24.786;2023-03-16T04:58:04;98482.22;;;7.71;100.00
7026;BME280;3554;42.132;24.786;2023-03-16T05:00:31;98502.94;;;7.74;100.00
7026;BME280;3554;42.132;24.786;2023-03-16T05:02:59;98496.22;;;7.69;100.00
7026;BME280;3554;42.132;24.786;2023-03-16T05:05:27;98503.19;;;7.68;100.00
7026;BME280;3554;42.132;24.786;2023-03-16T05:07:53;98509.19;;;7.70;100.00
7026;BME280;3554;42.132;24.786;2023-03-16T05:10:20;98514.56;;;7.66;100.00
7026;BME280;3554;42.132;24.786;2023-03-16T05:12:47;98523.81;;;7.73;100.00
7026;BME280;3554;42.132;24.786;2023-03-16T05:15:14;98470.78;;;7.35;100.00
7026;BME280;3554;42.132;24.786;2023-03-16T05:17:41;98463.72;;;7.37;100.00
7026;BME280;3554;42.132;24.786;2023-03-16T05:20:11;98531.44;;;7.77;100.00
7026;BME280;3554;42.132;24.786;2023-03-16T05:22:39;98537.97;;;7.67;100.00
7026;BME280;3554;42.132;24.786;2023-03-16T05:25:07;98550.06;;;7.68;100.00
7026;BME280;3554;42.132;24.786;2023-03-16T05:27:34;98551.88;;;7.66;100.00
7026;BME280;3554;42.132;24.786;2023-03-16T05:30:00;98564.06;;;7.66;100.00
7026;BME280;3554;42.132;24.786;2023-03-16T05:32:27;98569.16;;;7.69;100.00
7026;BME280;3554;42.132;24.786;2023-03-16T05:34:54;98569.72;;;7.75;100.00
7026;BME280;3554;42.132;24.786;2023-03-16T05:37:22;98570.53;;;7.77;100.00
7026;BME280;3554;42.132;24.786;2023-03-16T05:39:49;98570.75;;;7.71;100.00
7026;BME280;3554;42.132;24.786;2023-03-16T05:42:16;98564.75;;;7.69;100.00
7026;BME280;3554;42.132;24.786;2023-03-16T05:44:44;98568.06;;;7.74;100.00
7026;BME280;3554;42.132;24.786;2023-03-16T05:47:11;98564.97;;;7.65;100.00
7026;BME280;3554;42.132;24.786;2023-03-16T05:49:38;98572.94;;;7.62;100.00
7026;BME280;3554;42.132;24.786;2023-03-16T05:52:04;98510.06;;;7.29;100.00
7026;BME280;3554;42.132;24.786;2023-03-16T05:54:32;98580.84;;;7.58;100.00
7026;BME280;3554;42.132;24.786;2023-03-16T05:56:59;98579.16;;;7.57;100.00
7026;BME280;3554;42.132;24.786;2023-03-16T05:59:26;98582.47;;;7.61;100.00
7026;BME280;3554;42.132;24.786;2023-03-16T06:01:53;98581.38;;;7.67;100.00
7026;BME280;3554;42.132;24.786;2023-03-16T06:04:19;98595.91;;;7.72;100.00
7026;BME280;3554;42.132;24.786;2023-03-16T06:06:47;98590.56;;;7.75;100.00
7026;BME280;3554;42.132;24.786;2023-03-16T06:09:13;98595.84;;;7.74;100.00
7026;BME280;3554;42.132;24.786;2023-03-16T06:11:42;98588.44;;;7.85;100.00
7026;BME280;3554;42.132;24.786;2023-03-16T06:14:08;98605.41;;;7.73;100.00
7026;BME280;3554;42.132;24.786;2023-03-16T06:16:35;98600.06;;;7.76;100.00
7026;BME280;3554;42.132;24.786;2023-03-16T06:19:02;98616.47;;;7.78;100.00
7026;BME280;3554;42.132;24.786;2023-03-16T06:21:29;98610.31;;;7.81;100.00
7026;BME280;3554;42.132;24.786;2023-03-16T06:23:55;98619.81;;;7.82;100.00
7026;BME280;3554;42.132;24.786;2023-03-16T06:26:22;98605.75;;;7.86;100.00
7026;BME280;3554;42.132;24.786;2023-03-16T06:28:50;98623.47;;;7.78;100.00
7026;BME280;3554;42.132;24.786;2023-03-16T06:31:17;98605.28;;;7.76;100.00
7026;BME280;3554;42.132;24.786;2023-03-16T06:33:44;98633.16;;;7.94;100.00
7026;BME280;3554;42.132;24.786;2023-03-16T06:36:10;98641.59;;;8.01;100.00
7026;BME280;3554;42.132;24.786;2023-03-16T06:38:37;98643.59;;;7.94;100.00
7026;BME280;3554;42.132;24.786;2023-03-16T06:41:04;98644.88;;;7.84;100.00
7026;BME280;3554;42.132;24.786;2023-03-16T06:43:31;98646.78;;;7.81;100.00
7026;BME280;3554;42.132;24.786;2023-03-16T06:45:59;98649.03;;;7.68;100.00
7026;BME280;3554;42.132;24.786;2023-03-16T06:48:27;98628.63;;;7.57;100.00
7026;BME280;3554;42.132;24.786;2023-03-16T06:50:54;98633.53;;;7.65;100.00
7026;BME280;3554;42.132;24.786;2023-03-16T06:53:21;98669.44;;;7.79;100.00
7026;BME280;3554;42.132;24.786;2023-03-16T06:55:48;98651.03;;;7.83;100.00
7026;BME280;3554;42.132;24.786;2023-03-16T06:58:15;98607.97;;;7.53;100.00
7026;BME280;3554;42.132;24.786;2023-03-16T07:00:42;98668.28;;;7.86;100.00
7026;BME280;3554;42.132;24.786;2023-03-16T07:03:10;98678.56;;;7.89;100.00
7026;BME280;3554;42.132;24.786;2023-03-16T07:05:37;98689.25;;;7.83;100.00
7026;BME280;3554;42.132;24.786;2023-03-16T07:08:04;98688.97;;;7.89;100.00
7026;BME280;3554;42.132;24.786;2023-03-16T07:10:31;98676.63;;;7.94;100.00
7026;BME280;3554;42.132;24.786;2023-03-16T07:12:58;98694.66;;;7.98;100.00
7026;BME280;3554;42.132;24.786;2023-03-16T07:15:25;98690.09;;;8.03;100.00
7026;BME280;3554;42.132;24.786;2023-03-16T07:17:52;98697.75;;;8.08;100.00
7026;BME280;3554;42.132;24.786;2023-03-16T07:20:20;98693.25;;;8.11;100.00
7026;BME280;3554;42.132;24.786;2023-03-16T07:22:48;98681.84;;;7.94;100.00
7026;BME280;3554;42.132;24.786;2023-03-16T07:25:15;98710.31;;;7.98;100.00
7026;BME280;3554;42.132;24.786;2023-03-16T07:27:42;98707.28;;;7.87;100.00
7026;BME280;3554;42.132;24.786;2023-03-16T07:30:11;98701.53;;;7.79;100.00
7026;BME280;3554;42.132;24.786;2023-03-16T07:32:38;98720.44;;;7.84;100.00
7026;BME280;3554;42.132;24.786;2023-03-16T07:35:06;98724.56;;;7.90;100.00
7026;BME280;3554;42.132;24.786;2023-03-16T07:37:35;98704.22;;;7.98;100.00
7026;BME280;3554;42.132;24.786;2023-03-16T07:40:02;98719.28;;;7.91;100.00
7026;BME280;3554;42.132;24.786;2023-03-16T07:42:31;98729.25;;;8.02;100.00
7026;BME280;3554;42.132;24.786;2023-03-16T07:44:59;98704.50;;;7.92;100.00
7026;BME280;3554;42.132;24.786;2023-03-16T07:47:26;98726.22;;;8.12;100.00
7026;BME280;3554;42.132;24.786;2023-03-16T07:49:55;98721.72;;;8.16;100.00
7026;BME280;3554;42.132;24.786;2023-03-16T07:52:21;98723.38;;;8.18;100.00
7026;BME280;3554;42.132;24.786;2023-03-16T07:54:50;98710.28;;;8.20;100.00
7026;BME280;3554;42.132;24.786;2023-03-16T07:57:16;98718.06;;;8.41;100.00
7026;BME280;3554;42.132;24.786;2023-03-16T07:59:43;98714.63;;;8.41;100.00
7026;BME280;3554;42.132;24.786;2023-03-16T08:02:11;98706.16;;;8.36;100.00
7026;BME280;3554;42.132;24.786;2023-03-16T08:04:39;98698.56;;;8.30;100.00
7026;BME280;3554;42.132;24.786;2023-03-16T08:07:07;98728.63;;;8.58;100.00
7026;BME280;3554;42.132;24.786;2023-03-16T08:09:34;98714.41;;;8.65;100.00
7026;BME280;3554;42.132;24.786;2023-03-16T08:12:03;98720.00;;;8.77;100.00
7026;BME280;3554;42.132;24.786;2023-03-16T08:14:30;98733.22;;;8.92;100.00
7026;BME280;3554;42.132;24.786;2023-03-16T08:16:58;98726.81;;;8.99;100.00
7026;BME280;3554;42.132;24.786;2023-03-16T08:19:25;98722.94;;;8.89;100.00
7026;BME280;3554;42.132;24.786;2023-03-16T08:21:52;98725.63;;;9.06;100.00
7026;BME280;3554;42.132;24.786;2023-03-16T08:24:19;98704.34;;;8.77;100.00
7026;BME280;3554;42.132;24.786;2023-03-16T08:26:46;98743.25;;;8.83;100.00
7026;BME280;3554;42.132;24.786;2023-03-16T08:29:14;98745.00;;;8.82;100.00
7026;BME280;3554;42.132;24.786;2023-03-16T08:31:43;98743.75;;;8.71;100.00
7026;BME280;3554;42.132;24.786;2023-03-16T08:34:10;98763.31;;;8.60;100.00
7026;BME280;3554;42.132;24.786;2023-03-16T08:36:37;98756.41;;;8.59;100.00
7026;BME280;3554;42.132;24.786;2023-03-16T08:39:03;98754.47;;;8.64;100.00
7026;BME280;3554;42.132;24.786;2023-03-16T08:41:31;98757.00;;;8.66;100.00
7026;BME280;3554;42.132;24.786;2023-03-16T08:43:59;98762.00;;;8.71;100.00
7026;BME280;3554;42.132;24.786;2023-03-16T08:46:27;98768.34;;;8.65;100.00
7026;BME280;3554;42.132;24.786;2023-03-16T08:48:54;98766.13;;;8.76;100.00
7026;BME280;3554;42.132;24.786;2023-03-16T08:51:21;98761.75;;;8.97;100.00
7026;BME280;3554;42.132;24.786;2023-03-16T08:53:49;98758.78;;;9.04;100.00
7026;BME280;3554;42.132;24.786;2023-03-16T08:56:16;98769.28;;;9.03;100.00
7026;BME280;3554;42.132;24.786;2023-03-16T08:58:42;98762.31;;;9.03;100.00
7026;BME280;3554;42.132;24.786;2023-03-16T09:01:11;98766.19;;;9.13;100.00
7026;BME280;3554;42.132;24.786;2023-03-16T09:03:40;98757.88;;;9.24;100.00
7026;BME280;3554;42.132;24.786;2023-03-16T09:06:08;98766.47;;;9.27;100.00
7026;BME280;3554;42.132;24.786;2023-03-16T09:08:36;98740.47;;;9.24;100.00
7026;BME280;3554;42.132;24.786;2023-03-16T09:11:06;98767.16;;;9.31;100.00
7026;BME280;3554;42.132;24.786;2023-03-16T09:13:34;98756.00;;;9.46;100.00
7026;BME280;3554;42.132;24.786;2023-03-16T09:16:02;98773.94;;;9.53;100.00
7026;BME280;3554;42.132;24.786;2023-03-16T09:18:30;98751.94;;;9.59;100.00
7026;BME280;3554;42.132;24.786;2023-03-16T09:20:59;98751.53;;;9.66;100.00
7026;BME280;3554;42.132;24.786;2023-03-16T09:23:26;98772.25;;;9.71;100.00
7026;BME280;3554;42.132;24.786;2023-03-16T09:25:56;98774.19;;;9.85;100.00
7026;BME280;3554;42.132;24.786;2023-03-16T09:28:23;98768.19;;;10.01;100.00
7026;BME280;3554;42.132;24.786;2023-03-16T09:30:51;98769.25;;;9.97;100.00
7026;BME280;3554;42.132;24.786;2023-03-16T09:33:19;98761.75;;;10.08;100.00
7026;BME280;3554;42.132;24.786;2023-03-16T09:35:46;98763.00;;;10.18;100.00
7026;BME280;3554;42.132;24.786;2023-03-16T09:38:15;98769.59;;;10.08;100.00
7026;BME280;3554;42.132;24.786;2023-03-16T09:40:42;98766.97;;;10.08;100.00
7026;BME280;3554;42.132;24.786;2023-03-16T09:43:19;98770.47;;;10.09;100.00
7026;BME280;3554;42.132;24.786;2023-03-16T09:45:57;98777.31;;;10.11;100.00
7026;BME280;3554;42.132;24.786;2023-03-16T09:48:26;98756.38;;;10.11;100.00
7026;BME280;3554;42.132;24.786;2023-03-16T09:50:55;98773.03;;;10.27;100.00
7026;BME280;3554;42.132;24.786;2023-03-16T09:53:26;98781.81;;;10.26;100.00
7026;BME280;3554;42.132;24.786;2023-03-16T09:55:59;98726.72;;;10.12;100.00
7026;BME280;3554;42.132;24.786;2023-03-16T09:58:27;98777.06;;;10.51;100.00
7026;BME280;3554;42.132;24.786;2023-03-16T10:01:02;98773.59;;;10.51;100.00
7026;BME280;3554;42.132;24.786;2023-03-16T10:04:00;98777.97;;;10.50;100.00
7026;BME280;3554;42.132;24.786;2023-03-16T10:06:32;98768.28;;;10.69;100.00
7026;BME280;3554;42.132;24.786;2023-03-16T10:09:06;98766.91;;;10.62;100.00
7026;BME280;3554;42.132;24.786;2023-03-16T10:11:40;98778.97;;;10.65;100.00
7026;BME280;3554;42.132;24.786;2023-03-16T10:14:13;98775.03;;;10.73;100.00
7026;BME280;3554;42.132;24.786;2023-03-16T10:16:46;98763.41;;;10.79;100.00
7026;BME280;3554;42.132;24.786;2023-03-16T10:19:17;98766.94;;;10.95;100.00
7026;BME280;3554;42.132;24.786;2023-03-16T10:21:46;98772.88;;;10.99;100.00
7026;BME280;3554;42.132;24.786;2023-03-16T10:24:25;98767.31;;;10.88;100.00
7026;BME280;3554;42.132;24.786;2023-03-16T10:26:56;98769.22;;;10.86;100.00
7026;BME280;3554;42.132;24.786;2023-03-16T10:29:25;98775.09;;;11.06;100.00
7026;BME280;3554;42.132;24.786;2023-03-16T10:31:54;98615.97;;;10.13;100.00
7026;BME280;3554;42.132;24.786;2023-03-16T10:34:24;98784.41;;;11.12;100.00
7026;BME280;3554;42.132;24.786;2023-03-16T10:36:53;98788.50;;;11.17;100.00
7026;BME280;3554;42.132;24.786;2023-03-16T10:39:22;98786.59;;;11.36;100.00
7026;BME280;3554;42.132;24.786;2023-03-16T10:41:54;98749.88;;;11.21;100.00
7026;BME280;3554;42.132;24.786;2023-03-16T10:44:23;98782.56;;;11.14;100.00
7026;BME280;3554;42.132;24.786;2023-03-16T10:46:58;98775.69;;;11.28;100.00
7026;BME280;3554;42.132;24.786;2023-03-16T10:49:27;98784.81;;;11.37;100.00
7026;BME280;3554;42.132;24.786;2023-03-16T10:51:56;98779.50;;;11.54;100.00
7026;BME280;3554;42.132;24.786;2023-03-16T10:54:27;98769.41;;;11.79;100.00
7026;BME280;3554;42.132;24.786;2023-03-16T10:56:55;98787.94;;;11.76;100.00
7026;BME280;3554;42.132;24.786;2023-03-16T10:59:28;98771.94;;;11.65;100.00
7026;BME280;3554;42.132;24.786;2023-03-16T11:01:56;98779.00;;;11.63;100.00
7026;BME280;3554;42.132;24.786;2023-03-16T11:04:24;98776.88;;;11.71;100.00
7026;BME280;3554;42.132;24.786;2023-03-16T11:06:54;98757.00;;;11.67;100.00
7026;BME280;3554;42.132;24.786;2023-03-16T11:09:23;98774.66;;;11.79;100.00
7026;BME280;3554;42.132;24.786;2023-03-16T11:11:51;98774.41;;;11.68;100.00
7026;BME280;3554;42.132;24.786;2023-03-16T11:14:21;98758.91;;;11.63;100.00
7026;BME280;3554;42.132;24.786;2023-03-16T11:16:51;98756.00;;;11.52;100.00
7026;BME280;3554;42.132;24.786;2023-03-16T11:19:23;98759.22;;;11.57;100.00
7026;BME280;3554;42.132;24.786;2023-03-16T11:21:55;98770.28;;;11.62;100.00
7026;BME280;3554;42.132;24.786;2023-03-16T11:24:28;98754.38;;;11.50;100.00
7026;BME280;3554;42.132;24.786;2023-03-16T11:27:00;98765.31;;;11.58;100.00
7026;BME280;3554;42.132;24.786;2023-03-16T11:29:40;98769.16;;;11.68;100.00
7026;BME280;3554;42.132;24.786;2023-03-16T11:32:13;98766.28;;;11.72;100.00
7026;BME280;3554;42.132;24.786;2023-03-16T11:34:45;98761.69;;;11.60;100.00
7026;BME280;3554;42.132;24.786;2023-03-16T11:37:19;98755.13;;;11.69;100.00
7026;BME280;3554;42.132;24.786;2023-03-16T11:39:58;98764.72;;;11.53;100.00
7026;BME280;3554;42.132;24.786;2023-03-16T11:42:37;98768.13;;;11.55;100.00
7026;BME280;3554;42.132;24.786;2023-03-16T11:45:16;98769.63;;;11.59;100.00
7026;BME280;3554;42.132;24.786;2023-03-16T11:48:05;98757.94;;;11.49;100.00
7026;BME280;3554;42.132;24.786;2023-03-16T11:50:46;98762.69;;;11.42;100.00
7026;BME280;3554;42.132;24.786;2023-03-16T11:53:26;98766.06;;;11.44;100.00
7026;BME280;3554;42.132;24.786;2023-03-16T11:56:02;98785.97;;;11.64;100.00
7026;BME280;3554;42.132;24.786;2023-03-16T11:58:46;98783.28;;;11.65;100.00
7026;BME280;3554;42.132;24.786;2023-03-16T12:01:23;98772.72;;;11.67;100.00
7026;BME280;3554;42.132;24.786;2023-03-16T12:04:17;98775.06;;;11.71;100.00
7026;BME280;3554;42.132;24.786;2023-03-16T12:06:52;98784.56;;;11.74;100.00
7026;BME280;3554;42.132;24.786;2023-03-16T12:12:33;98783.66;;;11.58;100.00
7026;BME280;3554;42.132;24.786;2023-03-16T12:15:22;98780.53;;;11.51;100.00
7026;BME280;3554;42.132;24.786;2023-03-16T12:17:54;98799.28;;;11.44;100.00
7026;BME280;3554;42.132;24.786;2023-03-16T12:20:24;98786.00;;;11.47;100.00
7026;BME280;3554;42.132;24.786;2023-03-16T12:22:56;98794.94;;;11.43;100.00
7026;BME280;3554;42.132;24.786;2023-03-16T12:25:29;98778.78;;;11.19;100.00
7026;BME280;3554;42.132;24.786;2023-03-16T12:28:00;98795.69;;;11.29;100.00
7026;BME280;3554;42.132;24.786;2023-03-16T12:30:41;98792.78;;;11.18;100.00
7026;BME280;3554;42.132;24.786;2023-03-16T12:33:15;98786.84;;;11.15;100.00
7026;BME280;3554;42.132;24.786;2023-03-16T12:35:47;98801.81;;;11.13;100.00
7026;BME280;3554;42.132;24.786;2023-03-16T12:38:38;98802.34;;;11.19;100.00
7026;BME280;3554;42.132;24.786;2023-03-16T12:41:22;98801.50;;;11.19;100.00
7026;BME280;3554;42.132;24.786;2023-03-16T12:44:10;98816.53;;;11.15;100.00
7026;BME280;3554;42.132;24.786;2023-03-16T12:46:47;98807.03;;;11.30;100.00
7026;BME280;3554;42.132;24.786;2023-03-16T12:49:17;98802.81;;;11.10;100.00
7026;BME280;3554;42.132;24.786;2023-03-16T12:51:45;98813.84;;;11.00;100.00
7026;BME280;3554;42.132;24.786;2023-03-16T12:54:18;98805.75;;;11.04;100.00
7026;BME280;3554;42.132;24.786;2023-03-16T12:56:47;98828.53;;;11.02;100.00
7026;BME280;3554;42.132;24.786;2023-03-16T12:59:16;98826.19;;;10.98;100.00
7026;BME280;3554;42.132;24.786;2023-03-16T13:01:48;98817.84;;;10.90;100.00
7026;BME280;3554;42.132;24.786;2023-03-16T13:04:17;98824.34;;;11.00;100.00
7026;BME280;3554;42.132;24.786;2023-03-16T13:06:47;98810.16;;;10.87;100.00
7026;BME280;3554;42.132;24.786;2023-03-16T13:09:18;98822.81;;;10.78;100.00
7026;BME280;3554;42.132;24.786;2023-03-16T13:11:47;98805.31;;;10.79;100.00
7026;BME280;3554;42.132;24.786;2023-03-16T13:14:30;98827.72;;;10.85;100.00
7026;BME280;3554;42.132;24.786;2023-03-16T13:17:05;98834.31;;;10.92;100.00
7026;BME280;3554;42.132;24.786;2023-03-16T13:19:58;98777.19;;;10.48;100.00
7026;BME280;3554;42.132;24.786;2023-03-16T13:22:28;98839.47;;;10.93;100.00